createdAt,value
2022-10-05T00:01:35.014Z,1014.42
2022-10-05T00:07:54.981Z,1014.4
2022-10-05T00:14:18.106Z,1014.4
2022-10-05T00:20:37.989Z,1014.38
2022-10-05T00:27:01.017Z,1014.36
2022-10-05T00:33:21.010Z,1014.3
2022-10-05T00:39:44.002Z,1014.19
2022-10-05T00:46:04.013Z,1014.07
2022-10-05T00:52:27.002Z,1014.07
2022-10-05T00:58:46.991Z,1014.03
2022-10-05T01:05:09.976Z,1013.97
2022-10-05T01:11:30.050Z,1013.95
2022-10-05T01:17:53.038Z,1013.99
2022-10-05T01:24:13.016Z,1014.01
2022-10-05T01:30:36.018Z,1014.11
2022-10-05T01:36:56.065Z,1014.11
2022-10-05T01:43:18.975Z,1014.15
2022-10-05T01:49:39.028Z,1014.11
2022-10-05T01:56:01.987Z,1014.07
2022-10-05T02:02:22.091Z,1014.05
2022-10-05T02:08:45.074Z,1013.99
2022-10-05T02:15:05.007Z,1013.95
2022-10-05T02:21:27.973Z,1013.83
2022-10-05T02:27:48.010Z,1013.75
2022-10-05T02:34:11.043Z,1013.72
2022-10-05T02:40:30.986Z,1013.68
2022-10-05T02:46:57.090Z,1013.6
2022-10-05T02:53:14.004Z,1013.58
2022-10-05T02:59:37.013Z,1013.54
2022-10-05T03:05:56.995Z,1013.5
2022-10-05T03:28:10.095Z,1013.48
2022-10-05T03:34:32.991Z,1013.48
2022-10-05T03:40:52.990Z,1013.48
2022-10-05T03:47:16.034Z,1013.46
2022-10-05T03:53:35.986Z,1013.48
2022-10-05T03:59:58.985Z,1013.46
2022-10-05T04:06:19.113Z,1013.44
2022-10-05T04:12:42.025Z,1013.46
2022-10-05T04:19:02.000Z,1013.4
2022-10-05T04:25:25.032Z,1013.34
2022-10-05T04:31:45.038Z,1013.3
2022-10-05T04:38:07.992Z,1013.27
2022-10-05T04:44:28.040Z,1013.23
2022-10-05T04:50:50.991Z,1013.21
2022-10-05T04:57:11.002Z,1013.12
2022-10-05T05:03:34.053Z,1013.21
2022-10-05T05:09:54.006Z,1013.12
2022-10-05T05:16:16.997Z,1013.21
2022-10-05T05:22:37.038Z,1013.25
2022-10-05T05:29:00.036Z,1013.25
2022-10-05T05:35:19.983Z,1013.27
2022-10-05T05:41:43.032Z,1013.3
2022-10-05T05:48:03.016Z,1013.3
2022-10-05T05:54:25.983Z,1013.32
2022-10-05T06:00:46.015Z,1013.32
2022-10-05T06:07:08.992Z,1013.38
2022-10-05T06:13:28.995Z,1013.4
2022-10-05T06:19:52.028Z,1013.44
2022-10-05T06:26:12.018Z,1013.42
2022-10-05T06:32:34.999Z,1013.48
2022-10-05T06:38:55.065Z,1013.48
2022-10-05T06:45:18.021Z,1013.48
2022-10-05T06:51:38.028Z,1013.46
2022-10-05T06:58:01.016Z,1013.46
2022-10-05T07:04:20.985Z,1013.44
2022-10-05T07:10:44.002Z,1013.44
2022-10-05T07:17:04.101Z,1013.4
2022-10-05T07:23:26.995Z,1013.4
2022-10-05T07:29:46.981Z,1013.42
2022-10-05T07:36:10.046Z,1013.42
2022-10-05T07:42:29.996Z,1013.4
2022-10-05T07:48:53.027Z,1013.36
2022-10-05T07:55:13.021Z,1013.32
2022-10-05T08:01:36.013Z,1013.34
2022-10-05T08:07:56.023Z,1013.3
2022-10-05T08:14:19.034Z,1013.3
2022-10-05T08:37:21.986Z,1013.3
2022-10-05T08:43:44.978Z,1013.32
2022-10-05T08:50:04.988Z,1013.28
2022-10-05T08:56:29.031Z,1013.27
2022-10-05T09:02:48.040Z,1013.23
2022-10-05T09:09:11.032Z,1013.21
2022-10-05T09:15:31.089Z,1013.1
2022-10-05T09:21:53.990Z,1013.06
2022-10-05T09:28:14.072Z,1013.06
2022-10-05T09:34:37.004Z,1013.08
2022-10-05T09:40:56.980Z,1013.02
2022-10-05T09:47:19.981Z,1012.94
2022-10-05T09:53:40.011Z,1012.81
2022-10-05T10:00:03.111Z,1012.71
2022-10-05T10:06:22.995Z,1012.65
2022-10-05T10:12:46.036Z,1012.57
2022-10-05T10:19:06.006Z,1012.53
2022-10-05T10:25:29.023Z,1012.51
2022-10-05T10:31:49.476Z,1012.47
2022-10-05T10:38:11.995Z,1012.42
2022-10-05T10:44:31.984Z,1012.4
2022-10-05T10:50:55.019Z,1012.3
2022-10-05T10:57:15.016Z,1012.26
2022-10-05T11:03:37.986Z,1012.22
2022-10-05T11:09:58.032Z,1012.2
2022-10-05T11:16:20.981Z,1012.18
2022-10-05T11:22:40.980Z,1012.14
2022-10-05T11:29:04.013Z,1012.02
2022-10-05T11:35:23.986Z,1011.98
2022-10-05T11:41:47.214Z,1011.89
2022-10-05T11:48:07.016Z,1011.81
2022-10-05T11:54:32.478Z,1011.73
2022-10-05T12:00:50.101Z,1011.69
2022-10-05T12:07:14.135Z,1011.59
2022-10-05T12:13:34.013Z,1011.49
2022-10-05T12:19:56.982Z,1011.36
2022-10-05T12:26:17.032Z,1011.3
2022-10-05T12:32:39.988Z,1011.22
2022-10-05T12:38:59.980Z,1011.16
2022-10-05T12:45:23.141Z,1011.09
2022-10-05T12:51:43.065Z,1011.03
2022-10-05T12:58:06.003Z,1010.97
2022-10-05T13:04:26.004Z,1010.93
2022-10-05T13:10:48.972Z,1010.83
2022-10-05T13:17:09.253Z,1010.79
2022-10-05T13:23:32.110Z,1010.71
2022-10-05T13:29:54.282Z,1010.73
2022-10-05T13:45:44.571Z,1010.51
2022-10-05T13:52:04.003Z,1010.41
2022-10-05T13:58:27.611Z,1010.29
2022-10-05T14:04:48.006Z,1010.22
2022-10-05T14:11:11.240Z,1010.12
2022-10-05T14:17:32.260Z,1010.06
2022-10-05T14:23:54.890Z,1009.98
2022-10-05T14:30:15.007Z,1009.98
2022-10-05T14:36:37.978Z,1009.98
2022-10-05T14:42:58.004Z,1009.94
2022-10-05T14:49:20.988Z,1009.9
2022-10-05T14:55:40.971Z,1009.9
2022-10-05T15:02:04.025Z,1009.92
2022-10-05T15:08:23.980Z,1009.94
2022-10-05T15:14:47.043Z,1010
2022-10-05T15:21:07.038Z,1010.08
2022-10-05T15:27:29.990Z,1010.14
2022-10-05T15:33:49.985Z,1010.16
2022-10-05T15:40:13.024Z,1010.18
2022-10-05T15:46:33.227Z,1010.22
2022-10-05T15:52:56.301Z,1010.24
2022-10-05T15:59:17.784Z,1010.29
2022-10-05T16:05:39.070Z,1010.31
2022-10-05T16:11:58.986Z,1010.39
2022-10-05T16:18:22.221Z,1010.43
2022-10-05T16:24:41.977Z,1010.63
2022-10-05T16:31:05.015Z,1010.75
2022-10-05T16:37:24.999Z,1010.85
2022-10-05T16:43:47.986Z,1010.89
2022-10-05T16:50:07.990Z,1010.95
2022-10-05T16:56:31.029Z,1010.97
2022-10-05T17:02:51.022Z,1011.05
2022-10-05T17:09:13.994Z,1011.14
2022-10-05T17:15:34.054Z,1011.22
2022-10-05T17:21:57.004Z,1011.3
2022-10-05T17:28:17.111Z,1011.32
2022-10-05T17:34:40.038Z,1011.38
2022-10-05T17:41:00.010Z,1011.46
2022-10-05T17:47:23.001Z,1011.61
2022-10-05T17:53:43.039Z,1011.71
2022-10-05T18:00:06.015Z,1011.83
2022-10-05T18:06:26.013Z,1011.95
2022-10-05T18:12:49.034Z,1012.02
2022-10-05T18:19:08.975Z,1012.1
2022-10-05T18:25:31.995Z,1012.2
2022-10-05T18:31:52.001Z,1012.3
2022-10-05T18:55:15.999Z,1012.73
2022-10-05T19:01:39.076Z,1012.79
2022-10-05T19:07:58.978Z,1012.83
2022-10-05T19:14:22.004Z,1012.83
2022-10-05T19:20:42.049Z,1012.87
2022-10-05T19:27:04.969Z,1012.85
2022-10-05T19:33:25.016Z,1012.81
2022-10-05T19:39:47.982Z,1012.92
2022-10-05T19:46:08.009Z,1013
2022-10-05T19:52:31.327Z,1013.06
2022-10-05T19:58:50.996Z,1013.23
2022-10-05T20:05:14.003Z,1013.3
2022-10-05T20:11:34.021Z,1013.38
2022-10-05T20:17:56.979Z,1013.38
2022-10-05T20:24:16.982Z,1013.48
2022-10-05T20:30:40.124Z,1013.52
2022-10-05T20:37:00.011Z,1013.6
2022-10-05T20:43:23.015Z,1013.62
2022-10-05T20:49:43.003Z,1013.68
2022-10-05T20:56:05.987Z,1013.7
2022-10-05T21:02:25.976Z,1013.68
2022-10-05T21:08:49.006Z,1013.75
2022-10-05T21:15:08.973Z,1013.95
2022-10-05T21:21:31.974Z,1014.09
2022-10-05T21:27:52.011Z,1014.19
2022-10-05T21:34:14.979Z,1014.24
2022-10-05T21:40:34.980Z,1014.24
2022-10-05T21:46:58.001Z,1014.26
2022-10-05T21:53:17.997Z,1014.24
2022-10-05T21:59:40.987Z,1014.3
2022-10-05T22:22:38.044Z,1014.68
2022-10-05T22:28:58.000Z,1014.73
2022-10-05T22:35:20.976Z,1014.83
2022-10-05T22:41:41.019Z,1014.89
2022-10-05T22:48:04.000Z,1015.01
2022-10-05T22:54:27.498Z,1015.4
2022-10-05T23:00:57.877Z,1015.86
2022-10-05T23:07:07.036Z,1016.05
2022-10-05T23:13:29.995Z,1016.25
2022-10-05T23:19:50.003Z,1016.31
2022-10-05T23:26:12.973Z,1016.33
2022-10-05T23:32:33.011Z,1016.43
2022-10-05T23:38:56.022Z,1016.47
2022-10-05T23:45:16.002Z,1016.58
2022-10-05T23:51:38.986Z,1016.7
2022-10-05T23:57:59.059Z,1016.84
